Time,TemperatureF,DewpointF,PressureIn,WindDirection,WindDirectionDegrees,WindSpeedMPH,WindSpeedGustMPH,Humidity,HourlyPrecipIn,Conditions,Clouds,dailyrainin,SolarRadiationWatts/m^2,SoftwareType,DateUTC
2013-04-17 00:09:00,70.3,66.0,30.12,NNE,30,0.0,1.0,85,0.00,,,0.00,0,weatherlink.com 1.10,2013-04-17 04:09:00,
2013-04-17 00:24:00,70.0,65.0,30.12,NNE,29,0.0,0.0,85,0.00,,,0.00,0,weatherlink.com 1.10,2013-04-17 04:24:00,
2013-04-17 00:39:00,69.5,65.0,30.12,NNE,30,0.0,0.0,86,0.00,,,0.00,0,weatherlink.com 1.10,2013-04-17 04:39:00,
2013-04-17 00:54:00,69.0,65.0,30.12,NNE,29,0.0,0.0,87,0.00,,,0.00,0,weatherlink.com 1.10,2013-04-17 04:54:00,
2013-04-17 01:09:00,68.6,65.0,30.11,NNE,30,0.0,0.0,88,0.00,,,0.00,0,weatherlink.com 1.10,2013-04-17 05:09:00,
2013-04-17 01:24:00,68.3,65.0,30.11,NNE,30,0.0,0.0,89,0.00,,,0.00,0,weatherlink.com 1.10,2013-04-17 05:24:00,
2013-04-17 01:39:00,67.9,65.0,30.11,NNE,29,0.0,0.0,89,0.00,,,0.00,0,weatherlink.com 1.10,2013-04-17 05:39:00,
2013-04-17 01:54:00,67.4,64.0,30.10,NNE,30,0.0,0.0,89,0.00,,,0.00,0,weatherlink.com 1.10,2013-04-17 05:54:00,
2013-04-17 02:09:00,67.5,65.0,30.10,NNE,29,0.0,0.0,90,0.00,,,0.00,0,weatherlink.com 1.10,2013-04-17 06:09:00,
2013-04-17 02:24:00,67.5,65.0,30.10,NNE,30,0.0,0.0,91,0.00,,,0.00,0,weatherlink.com 1.10,2013-04-17 06:24:00,
2013-04-17 02:39:00,67.6,65.0,30.09,NNE,30,0.0,1.0,91,0.00,,,0.00,0,weatherlink.com 1.10,2013-04-17 06:39:00,
2013-04-17 02:54:00,67.6,65.0,30.09,NNE,30,0.0,0.0,91,0.00,,,0.00,0,weatherlink.com 1.10,2013-04-17 06:54:00,
2013-04-17 03:09:00,67.5,65.0,30.09,NNE,30,0.0,1.0,92,0.00,,,0.00,0,weatherlink.com 1.10,2013-04-17 07:09:00,
2013-04-17 03:24:00,67.6,65.0,30.09,NNE,30,0.0,1.0,92,0.00,,,0.00,0,weatherlink.com 1.10,2013-04-17 07:24:00,
2013-04-17 03:39:00,67.7,65.0,30.09,NNE,30,0.0,1.0,92,0.00,,,0.00,0,weatherlink.com 1.10,2013-04-17 07:39:00,
2013-04-17 03:54:00,67.9,66.0,30.09,NNE,29,0.0,1.0,93,0.00,,,0.00,0,weatherlink.com 1.10,2013-04-17 07:54:00,
2013-04-17 04:09:00,67.8,66.0,30.09,NNE,29,0.0,1.0,93,0.00,,,0.00,0,weatherlink.com 1.10,2013-04-17 08:09:00,
2013-04-17 04:24:00,67.7,66.0,30.09,NNE,29,0.0,0.0,93,0.00,,,0.00,0,weatherlink.com 1.10,2013-04-17 08:24:00,
2013-04-17 04:39:00,67.4,65.0,30.08,NNE,29,0.0,0.0,93,0.00,,,0.00,0,weatherlink.com 1.10,2013-04-17 08:39:00,
2013-04-17 04:54:00,67.1,65.0,30.08,NNE,30,0.0,1.0,93,0.00,,,0.00,0,weatherlink.com 1.10,2013-04-17 08:54:00,
2013-04-17 05:09:00,67.0,65.0,30.09,NNE,30,0.0,0.0,93,0.00,,,0.00,0,weatherlink.com 1.10,2013-04-17 09:09:00,
2013-04-17 05:24:00,67.5,66.0,30.09,NNE,30,0.0,1.0,93,0.00,,,0.00,0,weatherlink.com 1.10,2013-04-17 09:24:00,
2013-04-17 05:39:00,67.6,66.0,30.09,NNE,30,0.0,1.0,93,0.00,,,0.00,0,weatherlink.com 1.10,2013-04-17 09:39:00,
2013-04-17 05:54:00,67.5,66.0,30.09,NNE,30,0.0,1.0,93,0.00,,,0.00,0,weatherlink.com 1.10,2013-04-17 09:54:00,
2013-04-17 06:09:00,67.4,66.0,30.10,NNE,29,1.0,2.0,94,0.00,,,0.00,0,weatherlink.com 1.10,2013-04-17 10:09:00,
2013-04-17 06:24:00,67.4,66.0,30.10,NNE,19,0.0,2.0,94,0.00,,,0.00,0,weatherlink.com 1.10,2013-04-17 10:24:00,
2013-04-17 06:39:00,67.4,66.0,30.10,NNE,20,0.0,1.0,94,0.00,,,0.00,0,weatherlink.com 1.10,2013-04-17 10:39:00,
2013-04-17 06:54:00,67.4,66.0,30.11,NNE,20,1.0,3.0,94,0.00,,,0.00,0,weatherlink.com 1.10,2013-04-17 10:54:00,
2013-04-17 07:09:00,67.5,66.0,30.12,NNE,16,0.0,1.0,94,0.00,,,0.00,9,weatherlink.com 1.10,2013-04-17 11:09:00,
2013-04-17 07:24:00,67.6,66.0,30.12,North,11,0.0,3.0,94,0.00,,,0.00,21,weatherlink.com 1.10,2013-04-17 11:24:00,
2013-04-17 07:39:00,67.8,66.0,30.13,NNE,12,0.0,2.0,94,0.00,,,0.00,47,weatherlink.com 1.10,2013-04-17 11:39:00,
2013-04-17 07:55:00,67.9,66.0,30.13,North,360,0.0,3.0,94,0.00,,,0.00,84,weatherlink.com 1.10,2013-04-17 11:55:00,
2013-04-17 08:10:00,68.0,66.0,30.13,NNE,32,0.0,2.0,94,0.00,,,0.00,172,weatherlink.com 1.10,2013-04-17 12:10:00,
2013-04-17 08:25:00,68.3,67.0,30.13,North,360,2.0,4.0,94,0.00,,,0.00,107,weatherlink.com 1.10,2013-04-17 12:25:00,
2013-04-17 08:40:00,68.4,67.0,30.13,North,5,0.0,6.0,95,0.00,,,0.00,160,weatherlink.com 1.10,2013-04-17 12:40:00,
2013-04-17 08:55:00,69.7,68.0,30.13,North,9,0.0,3.0,95,0.00,,,0.00,387,weatherlink.com 1.10,2013-04-17 12:55:00,
2013-04-17 09:10:00,70.9,69.0,30.13,NNE,22,0.0,4.0,94,0.00,,,0.00,494,weatherlink.com 1.10,2013-04-17 13:10:00,
2013-04-17 09:25:00,72.2,70.0,30.12,NNE,33,0.0,2.0,92,0.00,,,0.00,504,weatherlink.com 1.10,2013-04-17 13:25:00,
2013-04-17 09:40:00,73.0,69.0,30.12,NNE,29,1.0,7.0,87,0.00,,,0.00,373,weatherlink.com 1.10,2013-04-17 13:40:00,
2013-04-17 09:55:00,73.6,69.0,30.12,East,90,1.0,5.0,85,0.00,,,0.00,325,weatherlink.com 1.10,2013-04-17 13:55:00,
2013-04-17 10:10:00,73.8,68.0,30.13,NNE,24,3.0,7.0,82,0.00,,,0.00,179,weatherlink.com 1.10,2013-04-17 14:10:00,
2013-04-17 10:25:00,75.0,68.0,30.12,East,87,0.0,6.0,80,0.00,,,0.00,418,weatherlink.com 1.10,2013-04-17 14:25:00,
2013-04-17 10:40:00,76.2,68.0,30.12,NE,35,0.0,5.0,76,0.00,,,0.00,290,weatherlink.com 1.10,2013-04-17 14:40:00,
2013-04-17 10:55:00,76.6,67.0,30.11,North,355,7.0,7.0,71,0.00,,,0.00,575,weatherlink.com 1.10,2013-04-17 14:55:00,
2013-04-17 11:10:00,77.6,66.0,30.11,SSE,151,0.0,7.0,68,0.00,,,0.00,761,weatherlink.com 1.10,2013-04-17 15:10:00,
2013-04-17 11:25:00,78.6,66.0,30.11,East,97,2.0,8.0,66,0.00,,,0.00,536,weatherlink.com 1.10,2013-04-17 15:25:00,
2013-04-17 11:40:00,78.7,66.0,30.11,NNE,30,0.0,4.0,65,0.00,,,0.00,826,weatherlink.com 1.10,2013-04-17 15:40:00,
2013-04-17 11:55:00,79.2,65.0,30.10,North,355,0.0,8.0,62,0.00,,,0.00,408,weatherlink.com 1.10,2013-04-17 15:55:00,
2013-04-17 12:10:00,80.1,65.0,30.10,SSW,210,1.0,9.0,61,0.00,,,0.00,1107,weatherlink.com 1.10,2013-04-17 16:10:00,
2013-04-17 12:25:00,81.2,65.0,30.10,East,89,3.0,9.0,58,0.00,,,0.00,373,weatherlink.com 1.10,2013-04-17 16:25:00,
2013-04-17 12:40:00,82.7,64.0,30.09,NNE,32,3.0,13.0,53,0.00,,,0.00,422,weatherlink.com 1.10,2013-04-17 16:40:00,
2013-04-17 12:55:00,81.8,64.0,30.09,East,89,2.0,8.0,55,0.00,,,0.00,1155,weatherlink.com 1.10,2013-04-17 16:55:00,
2013-04-17 13:10:00,82.2,64.0,30.08,NNE,33,3.0,8.0,55,0.00,,,0.00,923,weatherlink.com 1.10,2013-04-17 17:10:00,
2013-04-17 13:25:00,81.7,63.0,30.07,NNE,20,1.0,11.0,54,0.00,,,0.00,320,weatherlink.com 1.10,2013-04-17 17:25:00,
2013-04-17 13:40:00,82.3,63.0,30.07,NE,51,2.0,8.0,53,0.00,,,0.00,271,weatherlink.com 1.10,2013-04-17 17:40:00,
2013-04-17 13:55:00,81.0,63.0,30.07,East,82,2.0,10.0,55,0.00,,,0.00,339,weatherlink.com 1.10,2013-04-17 17:55:00,
2013-04-17 14:10:00,81.5,65.0,30.06,NNE,29,3.0,11.0,57,0.00,,,0.00,1195,weatherlink.com 1.10,2013-04-17 18:10:00,
2013-04-17 14:25:00,81.9,65.0,30.06,NNE,14,3.0,8.0,56,0.00,,,0.00,466,weatherlink.com 1.10,2013-04-17 18:25:00,
2013-04-17 14:40:00,82.2,65.0,30.06,NE,40,1.0,9.0,56,0.00,,,0.00,522,weatherlink.com 1.10,2013-04-17 18:40:00,
2013-04-17 14:55:00,82.3,65.0,30.05,NE,38,1.0,7.0,56,0.00,,,0.00,954,weatherlink.com 1.10,2013-04-17 18:55:00,
2013-04-17 15:11:00,83.4,64.0,30.05,ESE,122,1.0,10.0,53,0.00,,,0.00,397,weatherlink.com 1.10,2013-04-17 19:11:00,
2013-04-17 15:26:00,82.6,65.0,30.04,NE,36,4.0,11.0,56,0.00,,,0.00,758,weatherlink.com 1.10,2013-04-17 19:26:00,
2013-04-17 15:41:00,81.3,66.0,30.04,ENE,57,3.0,11.0,59,0.00,,,0.00,306,weatherlink.com 1.10,2013-04-17 19:41:00,
2013-04-17 15:56:00,81.0,65.0,30.04,ESE,117,1.0,10.0,59,0.00,,,0.00,715,weatherlink.com 1.10,2013-04-17 19:56:00,
2013-04-17 16:11:00,81.1,65.0,30.04,NE,54,3.0,10.0,59,0.00,,,0.00,418,weatherlink.com 1.10,2013-04-17 20:11:00,
2013-04-17 16:26:00,80.8,66.0,30.04,East,91,7.0,12.0,60,0.00,,,0.00,369,weatherlink.com 1.10,2013-04-17 20:26:00,
2013-04-17 16:41:00,79.8,66.0,30.04,NNW,341,3.0,9.0,63,0.00,,,0.00,202,weatherlink.com 1.10,2013-04-17 20:41:00,
2013-04-17 16:56:00,79.2,66.0,30.04,ENE,72,1.0,10.0,64,0.00,,,0.00,255,weatherlink.com 1.10,2013-04-17 20:56:00,
2013-04-17 17:11:00,79.3,67.0,30.04,ESE,106,5.0,12.0,65,0.00,,,0.00,202,weatherlink.com 1.10,2013-04-17 21:11:00,
2013-04-17 17:26:00,79.0,65.0,30.04,East,86,0.0,10.0,62,0.00,,,0.00,192,weatherlink.com 1.10,2013-04-17 21:26:00,
2013-04-17 17:41:00,79.4,66.0,30.04,SE,138,0.0,7.0,63,0.00,,,0.00,223,weatherlink.com 1.10,2013-04-17 21:41:00,
2013-04-17 17:56:00,79.2,66.0,30.04,NNE,12,2.0,9.0,64,0.00,,,0.00,114,weatherlink.com 1.10,2013-04-17 21:56:00,
2013-04-17 18:11:00,78.7,65.0,30.04,NE,47,1.0,8.0,64,0.00,,,0.00,125,weatherlink.com 1.10,2013-04-17 22:11:00,
2013-04-17 18:26:00,78.4,67.0,30.05,NNW,333,1.0,9.0,67,0.00,,,0.00,213,weatherlink.com 1.10,2013-04-17 22:26:00,
2013-04-17 18:41:00,77.9,66.0,30.05,ENE,72,5.0,8.0,67,0.00,,,0.00,102,weatherlink.com 1.10,2013-04-17 22:41:00,
2013-04-17 18:56:00,77.6,66.0,30.05,NE,40,4.0,9.0,67,0.00,,,0.00,56,weatherlink.com 1.10,2013-04-17 22:56:00,
2013-04-17 19:11:00,77.1,65.0,30.06,ENE,73,3.0,9.0,67,0.00,,,0.00,40,weatherlink.com 1.10,2013-04-17 23:11:00,
2013-04-17 19:26:00,76.7,65.0,30.06,East,90,0.0,7.0,68,0.00,,,0.00,18,weatherlink.com 1.10,2013-04-17 23:26:00,
2013-04-17 19:41:00,76.2,64.0,30.05,NE,44,0.0,7.0,66,0.00,,,0.00,7,weatherlink.com 1.10,2013-04-17 23:41:00,
2013-04-17 19:56:00,75.8,64.0,30.05,SE,133,0.0,5.0,66,0.00,,,0.00,0,weatherlink.com 1.10,2013-04-17 23:56:00,
2013-04-17 20:11:00,75.2,64.0,30.05,ENE,61,0.0,4.0,68,0.00,,,0.00,0,weatherlink.com 1.10,2013-04-18 00:11:00,
2013-04-17 20:26:00,74.8,64.0,30.06,ESE,113,0.0,2.0,70,0.00,,,0.00,0,weatherlink.com 1.10,2013-04-18 00:26:00,
2013-04-17 21:11:00,73.7,65.0,30.06,East,88,0.0,3.0,75,0.00,,,0.00,0,weatherlink.com 1.10,2013-04-18 01:11:00,
2013-04-17 21:26:00,73.4,65.0,30.07,East,92,0.0,1.0,76,0.00,,,0.00,0,weatherlink.com 1.10,2013-04-18 01:26:00,
2013-04-17 21:41:00,73.2,66.0,30.07,East,98,0.0,1.0,77,0.00,,,0.00,0,weatherlink.com 1.10,2013-04-18 01:41:00,
2013-04-17 21:56:00,73.0,66.0,30.07,East,96,0.0,1.0,79,0.00,,,0.00,0,weatherlink.com 1.10,2013-04-18 01:56:00,
2013-04-17 22:41:00,72.2,66.0,30.06,ESE,117,0.0,2.0,81,0.00,,,0.00,0,weatherlink.com 1.10,2013-04-18 02:41:00,
2013-04-17 22:56:00,71.9,66.0,30.07,East,89,0.0,2.0,82,0.00,,,0.00,0,weatherlink.com 1.10,2013-04-18 02:56:00,
2013-04-17 23:11:00,71.5,66.0,30.07,ESE,110,0.0,1.0,83,0.00,,,0.00,0,weatherlink.com 1.10,2013-04-18 03:11:00,
2013-04-17 23:26:00,71.2,66.0,30.07,ESE,110,0.0,1.0,84,0.00,,,0.00,0,weatherlink.com 1.10,2013-04-18 03:26:00,
2013-04-17 23:56:00,70.6,66.0,30.06,ESE,110,0.0,1.0,85,0.00,,,0.00,0,weatherlink.com 1.10,2013-04-18 03:56:00,